Time;durP1;ratioP1;P1;durP2;ratioP2;P2;SDS_P1;SDS_P2;PMS_P1;PMS_P2;Temp;Humidity;BMP_temperature;BMP_pressure;BME280_temperature;BME280_humidity;BME280_pressure;Samples;Min_cycle;Max_cycle;Signal;HPM_P1;HPM_P2
2024/01/27 00:00:04;;;;;;;545.50;146.85;;;;;;;;;;5035675;28;20022;-46
2024/01/27 00:02:35;;;;;;;599.50;157.82;;;;;;;;;;5015529;28;20033;-46
2024/01/27 00:05:02;;;;;;;625.30;170.52;;;;;;;;;;5035249;28;20105;-46
2024/01/27 00:07:28;;;;;;;;;;;;;;;;;;5050341;28;20029;-46
2024/01/27 00:09:59;;;;;;;477.75;140.80;;;;;;;;;;5048617;28;19909;-46
2024/01/27 00:12:25;;;;;;;597.17;154.45;;;;;;;;;;5049942;28;20025;-45
2024/01/27 00:14:51;;;;;;;582.17;150.80;;;;;;;;;;5035035;28;20025;-45
2024/01/27 00:17:17;;;;;;;832.97;189.27;;;;;;;;;;5052923;28;20110;-45
2024/01/27 00:19:43;;;;;;;596.10;154.48;;;;;;;;;;5049225;28;20045;-47
2024/01/27 00:22:09;;;;;;;569.80;151.13;;;;;;;;;;5034994;28;20045;-45
2024/01/27 00:24:36;;;;;;;628.80;164.77;;;;;;;;;;5045066;28;20021;-47
2024/01/27 00:27:02;;;;;;;426.45;135.57;;;;;;;;;;5034702;28;20029;-46
2024/01/27 00:29:28;;;;;;;875.30;183.00;;;;;;;;;;5038300;28;20017;-46
2024/01/27 00:31:54;;;;;;;473.05;135.55;;;;;;;;;;5049598;28;20025;-46
2024/01/27 00:34:21;;;;;;;521.30;146.03;;;;;;;;;;5054388;28;20032;-45
2024/01/27 00:36:50;;;;;;;415.85;131.13;;;;;;;;;;5034817;28;20048;-45
2024/01/27 00:39:16;;;;;;;503.00;147.02;;;;;;;;;;5040043;28;20098;-46
2024/01/27 00:41:43;;;;;;;512.40;146.98;;;;;;;;;;5054042;28;20116;-46
2024/01/27 00:44:09;;;;;;;444.20;138.07;;;;;;;;;;5054161;28;20103;-46
2024/01/27 00:46:35;;;;;;;453.38;122.32;;;;;;;;;;5039941;28;20060;-46
2024/01/27 00:49:02;;;;;;;395.70;128.83;;;;;;;;;;5039152;28;20030;-45
2024/01/27 00:51:28;;;;;;;637.17;153.35;;;;;;;;;;5054247;28;20490;-46
2024/01/27 00:53:54;;;;;;;419.83;127.50;;;;;;;;;;5053966;28;20032;-47
2024/01/27 00:56:20;;;;;;;734.65;178.07;;;;;;;;;;5037110;28;20407;-45
2024/01/27 00:58:47;;;;;;;631.65;154.70;;;;;;;;;;5035342;28;20070;-45
2024/01/27 01:01:13;;;;;;;348.83;116.15;;;;;;;;;;5043378;28;20032;-47
2024/01/27 01:03:39;;;;;;;504.93;137.93;;;;;;;;;;5052452;28;20380;-46
2024/01/27 01:06:05;;;;;;;455.75;128.98;;;;;;;;;;5053675;28;20029;-46
2024/01/27 01:08:32;;;;;;;375.63;118.13;;;;;;;;;;5052011;28;20029;-45
2024/01/27 01:10:58;;;;;;;550.72;148.35;;;;;;;;;;5035033;28;20032;-46
2024/01/27 01:13:24;;;;;;;405.02;121.38;;;;;;;;;;5033934;28;20079;-47
2024/01/27 01:15:51;;;;;;;389.80;112.47;;;;;;;;;;5041121;28;20029;-45
2024/01/27 01:18:17;;;;;;;626.40;149.35;;;;;;;;;;5052676;28;20037;-46
2024/01/27 01:20:43;;;;;;;652.55;162.57;;;;;;;;;;5034146;28;20018;-45
2024/01/27 01:23:09;;;;;;;626.83;150.75;;;;;;;;;;5033841;28;20029;-46
2024/01/27 01:25:35;;;;;;;586.05;146.43;;;;;;;;;;5044357;28;20574;-46
2024/01/27 01:28:02;;;;;;;617.35;142.68;;;;;;;;;;5053598;28;20057;-47
2024/01/27 01:30:28;;;;;;;367.00;117.85;;;;;;;;;;5039159;28;20116;-46
2024/01/27 01:32:54;;;;;;;524.97;125.13;;;;;;;;;;5053329;28;20021;-45
2024/01/27 01:35:21;;;;;;;287.87;102.23;;;;;;;;;;5046707;28;20400;-47
2024/01/27 01:37:48;;;;;;;632.30;161.87;;;;;;;;;;5047466;28;20065;-47
2024/01/27 01:40:15;;;;;;;389.20;118.72;;;;;;;;;;5052471;28;20259;-46
2024/01/27 01:42:41;;;;;;;652.58;165.13;;;;;;;;;;5033341;28;20064;-47
2024/01/27 01:45:09;;;;;;;428.50;122.07;;;;;;;;;;5033180;28;20033;-47
2024/01/27 01:47:38;;;;;;;405.02;117.97;;;;;;;;;;5033181;28;20399;-46
2024/01/27 01:50:06;;;;;;;452.13;122.00;;;;;;;;;;5031852;28;20041;-46
2024/01/27 01:52:32;;;;;;;407.88;122.18;;;;;;;;;;5034826;28;20025;-47
2024/01/27 01:54:58;;;;;;;467.50;128.65;;;;;;;;;;5051720;28;20033;-47
2024/01/27 01:57:24;;;;;;;740.90;181.00;;;;;;;;;;5052983;28;20032;-46
2024/01/27 01:59:51;;;;;;;493.05;132.35;;;;;;;;;;5052964;28;20032;-45
2024/01/27 02:02:17;;;;;;;547.63;126.68;;;;;;;;;;5052858;28;20075;-46
2024/01/27 02:04:45;;;;;;;448.20;124.73;;;;;;;;;;5047982;28;20053;-46
2024/01/27 02:07:11;;;;;;;545.72;143.15;;;;;;;;;;5032619;28;20476;-47
2024/01/27 02:09:37;;;;;;;458.50;129.50;;;;;;;;;;5042010;28;20024;-47
2024/01/27 02:12:04;;;;;;;866.53;193.70;;;;;;;;;;5034131;28;20124;-46
2024/01/27 02:14:30;;;;;;;587.67;147.57;;;;;;;;;;5034022;28;20036;-47
2024/01/27 02:16:56;;;;;;;523.95;135.75;;;;;;;;;;5047757;28;20384;-46
2024/01/27 02:19:23;;;;;;;498.65;128.95;;;;;;;;;;5049253;28;20120;-46
2024/01/27 02:21:49;;;;;;;446.88;126.32;;;;;;;;;;5031361;28;20065;-47
2024/01/27 02:24:15;;;;;;;456.97;128.37;;;;;;;;;;5033031;28;20034;-46
2024/01/27 02:26:41;;;;;;;575.17;152.25;;;;;;;;;;5032282;28;20022;-45
2024/01/27 02:29:08;;;;;;;635.47;149.00;;;;;;;;;;5032564;28;20116;-46
2024/01/27 02:31:34;;;;;;;506.60;145.32;;;;;;;;;;5038903;28;20117;-47
2024/01/27 02:34:00;;;;;;;514.27;129.27;;;;;;;;;;5033693;28;20035;-47
2024/01/27 02:36:26;;;;;;;607.75;155.90;;;;;;;;;;5021351;28;20033;-46
2024/01/27 02:38:52;;;;;;;1005.92;231.90;;;;;;;;;;5044946;28;20033;-46
2024/01/27 02:41:18;;;;;;;695.97;171.55;;;;;;;;;;5039188;28;20115;-45
2024/01/27 02:43:45;;;;;;;510.00;146.67;;;;;;;;;;5032484;28;20029;-45
2024/01/27 02:46:12;;;;;;;544.25;152.15;;;;;;;;;;5041089;28;20087;-45
2024/01/27 02:48:45;;;;;;;604.00;153.82;;;;;;;;;;5040544;28;20030;-46
2024/01/27 02:51:12;;;;;;;589.72;146.23;;;;;;;;;;5031972;28;20087;-46
2024/01/27 02:53:38;;;;;;;544.72;139.35;;;;;;;;;;5033138;28;20025;-46
2024/01/27 02:56:08;;;;;;;710.47;166.20;;;;;;;;;;5036420;28;20440;-46
2024/01/27 02:58:34;;;;;;;492.10;137.07;;;;;;;;;;5040826;28;20033;-45
2024/01/27 03:01:00;;;;;;;398.07;119.33;;;;;;;;;;5039514;28;20025;-46
2024/01/27 03:03:27;;;;;;;474.98;134.55;;;;;;;;;;5051193;28;20033;-47
2024/01/27 03:05:53;;;;;;;478.65;133.38;;;;;;;;;;5051704;28;20060;-46
2024/01/27 03:08:19;;;;;;;427.90;126.65;;;;;;;;;;5045481;28;20032;-47
2024/01/27 03:10:45;;;;;;;662.08;158.60;;;;;;;;;;5039087;28;20098;-47
2024/01/27 03:13:11;;;;;;;661.65;156.73;;;;;;;;;;5041100;28;20025;-45
2024/01/27 03:15:38;;;;;;;1155.07;241.82;;;;;;;;;;5034670;28;20040;-45
2024/01/27 03:18:04;;;;;;;574.97;157.07;;;;;;;;;;5046398;28;20024;-45
2024/01/27 03:20:33;;;;;;;546.83;148.77;;;;;;;;;;5030423;28;20395;-46
2024/01/27 03:22:59;;;;;;;545.35;150.90;;;;;;;;;;5041531;28;20028;-45
2024/01/27 03:25:26;;;;;;;803.78;202.13;;;;;;;;;;5046715;28;20111;-47
2024/01/27 03:27:52;;;;;;;758.88;187.57;;;;;;;;;;5048396;28;20099;-45
2024/01/27 03:30:19;;;;;;;466.08;135.15;;;;;;;;;;5048932;28;20025;-45
2024/01/27 03:32:45;;;;;;;605.88;157.75;;;;;;;;;;5031537;28;20029;-45
2024/01/27 03:35:11;;;;;;;741.45;184.68;;;;;;;;;;5030745;28;20029;-46
2024/01/27 03:37:37;;;;;;;567.13;140.90;;;;;;;;;;5022843;28;20090;-47
2024/01/27 03:40:04;;;;;;;751.95;193.80;;;;;;;;;;5043278;28;20705;-47
2024/01/27 03:42:30;;;;;;;673.47;163.88;;;;;;;;;;5033432;28;20037;-46
2024/01/27 03:44:56;;;;;;;427.60;125.57;;;;;;;;;;5031350;28;20013;-45
2024/01/27 03:47:22;;;;;;;447.40;133.57;;;;;;;;;;5039995;28;20025;-45
2024/01/27 03:49:49;;;;;;;385.33;118.20;;;;;;;;;;5048888;28;20017;-46
2024/01/27 03:52:16;;;;;;;602.57;152.73;;;;;;;;;;5039760;28;20021;-46
2024/01/27 03:54:42;;;;;;;;;;;;;;;;;;5048456;28;20025;-47
2024/01/27 03:57:08;;;;;;;356.00;108.85;;;;;;;;;;5031115;28;19909;-46
2024/01/27 03:59:34;;;;;;;385.73;116.80;;;;;;;;;;5045789;28;20033;-45
2024/01/27 04:02:00;;;;;;;575.45;142.52;;;;;;;;;;5047858;28;20036;-47
2024/01/27 04:04:27;;;;;;;435.37;124.57;;;;;;;;;;5037988;28;20522;-45
2024/01/27 04:06:53;;;;;;;470.15;129.05;;;;;;;;;;5031157;28;20085;-46
2024/01/27 04:09:19;;;;;;;388.63;122.40;;;;;;;;;;5030837;28;20061;-46
2024/01/27 04:11:45;;;;;;;402.30;126.57;;;;;;;;;;5049285;28;20032;-45
2024/01/27 04:14:11;;;;;;;510.23;150.23;;;;;;;;;;5042503;28;20487;-47
2024/01/27 04:16:38;;;;;;;519.97;153.25;;;;;;;;;;5043131;28;20271;-46
2024/01/27 04:19:04;;;;;;;466.33;130.48;;;;;;;;;;5038365;28;20492;-46
2024/01/27 04:21:30;;;;;;;404.20;131.03;;;;;;;;;;5011313;28;20029;-47
2024/01/27 04:23:56;;;;;;;317.87;118.23;;;;;;;;;;5011182;28;20037;-46
2024/01/27 04:26:23;;;;;;;567.28;146.73;;;;;;;;;;5033080;28;20111;-46
2024/01/27 04:28:49;;;;;;;355.35;117.18;;;;;;;;;;5036569;28;20026;-46
2024/01/27 04:31:15;;;;;;;427.53;125.30;;;;;;;;;;5039156;28;20057;-45
2024/01/27 04:33:41;;;;;;;393.05;123.93;;;;;;;;;;5041517;28;20534;-46
2024/01/27 04:36:09;;;;;;;389.92;119.32;;;;;;;;;;5030843;28;20531;-47
2024/01/27 04:38:35;;;;;;;536.78;151.07;;;;;;;;;;5038968;28;20064;-47
2024/01/27 04:41:02;;;;;;;562.60;145.27;;;;;;;;;;5043368;28;20022;-46
2024/01/27 04:43:28;;;;;;;732.88;174.65;;;;;;;;;;5035367;28;20376;-46
2024/01/27 04:45:55;;;;;;;382.58;119.30;;;;;;;;;;5043505;28;20390;-45
2024/01/27 04:48:21;;;;;;;409.58;120.47;;;;;;;;;;5031815;28;20067;-48
2024/01/27 04:50:48;;;;;;;672.17;164.37;;;;;;;;;;5038535;28;20021;-46
2024/01/27 04:53:14;;;;;;;546.35;153.77;;;;;;;;;;5042291;28;20061;-47
2024/01/27 04:55:40;;;;;;;353.20;116.75;;;;;;;;;;5034214;28;20033;-47
2024/01/27 04:58:07;;;;;;;554.72;145.82;;;;;;;;;;5034398;28;20097;-47
2024/01/27 05:00:33;;;;;;;378.20;113.45;;;;;;;;;;5034339;28;20480;-47
2024/01/27 05:03:04;;;;;;;360.63;113.20;;;;;;;;;;5034362;28;20641;-46
2024/01/27 05:05:30;;;;;;;340.65;112.80;;;;;;;;;;5032750;28;20112;-52
2024/01/27 05:07:56;;;;;;;609.72;160.98;;;;;;;;;;5034671;28;20038;-49
2024/01/27 05:10:22;;;;;;;854.33;201.70;;;;;;;;;;5034128;28;20025;-47
2024/01/27 05:12:48;;;;;;;330.00;106.63;;;;;;;;;;5034123;28;20272;-50
2024/01/27 05:15:15;;;;;;;674.27;168.67;;;;;;;;;;5034054;28;20029;-50
2024/01/27 05:17:41;;;;;;;793.38;177.65;;;;;;;;;;5034139;28;20023;-47
2024/01/27 05:20:08;;;;;;;573.55;157.93;;;;;;;;;;5033952;28;20030;-47
2024/01/27 05:22:34;;;;;;;420.33;122.22;;;;;;;;;;5033908;28;20033;-48
2024/01/27 05:25:01;;;;;;;402.80;124.53;;;;;;;;;;5034001;28;20049;-46
2024/01/27 05:27:27;;;;;;;443.40;133.63;;;;;;;;;;5033829;28;20025;-47
2024/01/27 05:29:53;;;;;;;327.77;112.87;;;;;;;;;;5033779;28;20072;-47
2024/01/27 05:32:19;;;;;;;503.65;135.38;;;;;;;;;;5033882;28;20030;-47
2024/01/27 05:34:45;;;;;;;411.00;121.55;;;;;;;;;;5033669;28;20033;-47
2024/01/27 05:37:13;;;;;;;442.42;132.02;;;;;;;;;;5033674;28;20033;-47
2024/01/27 05:39:39;;;;;;;;;;;;;;;;;;5034192;28;20033;-47
2024/01/27 05:42:06;;;;;;;563.90;143.82;;;;;;;;;;5033547;28;19909;-47
2024/01/27 05:44:32;;;;;;;358.98;112.07;;;;;;;;;;5033617;28;20038;-47
2024/01/27 05:46:58;;;;;;;887.78;216.27;;;;;;;;;;5033450;28;20018;-46
2024/01/27 05:49:25;;;;;;;736.73;178.03;;;;;;;;;;5033432;28;20032;-50
2024/01/27 05:51:51;;;;;;;669.53;172.05;;;;;;;;;;5032141;28;20036;-47
2024/01/27 05:54:17;;;;;;;581.60;152.02;;;;;;;;;;5033390;28;20491;-47
2024/01/27 05:56:43;;;;;;;411.85;125.88;;;;;;;;;;5033208;28;20408;-47
2024/01/27 05:59:09;;;;;;;395.90;128.40;;;;;;;;;;5032368;28;20029;-48
2024/01/27 06:01:36;;;;;;;544.83;142.07;;;;;;;;;;5033341;28;20030;-49
2024/01/27 06:04:02;;;;;;;475.17;135.07;;;;;;;;;;5033155;28;20643;-47
2024/01/27 06:06:28;;;;;;;396.67;130.00;;;;;;;;;;5032837;28;20018;-47
2024/01/27 06:08:54;;;;;;;764.80;191.03;;;;;;;;;;5033165;28;20447;-47
2024/01/27 06:11:24;;;;;;;793.60;204.93;;;;;;;;;;5031764;28;20127;-47
2024/01/27 06:13:50;;;;;;;587.90;157.27;;;;;;;;;;5033171;28;20108;-47
2024/01/27 06:16:21;;;;;;;499.02;144.15;;;;;;;;;;5031699;28;20026;-47
2024/01/27 06:18:47;;;;;;;1049.68;236.25;;;;;;;;;;5032935;28;20029;-49
2024/01/27 06:21:13;;;;;;;925.20;224.43;;;;;;;;;;5031633;28;20057;-49
2024/01/27 06:23:39;;;;;;;1205.65;274.67;;;;;;;;;;5031530;28;20450;-48
2024/01/27 06:26:09;;;;;;;488.93;153.33;;;;;;;;;;5032910;28;20022;-49
2024/01/27 06:28:36;;;;;;;761.28;194.05;;;;;;;;;;5032874;28;20785;-46
2024/01/27 06:31:03;;;;;;;489.38;147.88;;;;;;;;;;5032659;28;20415;-47
2024/01/27 06:33:29;;;;;;;583.55;158.10;;;;;;;;;;5032670;28;20120;-48
2024/01/27 06:35:55;;;;;;;614.63;183.15;;;;;;;;;;5031135;28;20032;-46
2024/01/27 06:38:21;;;;;;;444.40;141.53;;;;;;;;;;5033295;28;20029;-47
2024/01/27 06:40:47;;;;;;;834.03;218.68;;;;;;;;;;5032850;28;20029;-49
2024/01/27 06:43:14;;;;;;;693.83;185.40;;;;;;;;;;5031351;28;20037;-47
2024/01/27 06:45:40;;;;;;;895.47;224.23;;;;;;;;;;5031236;28;20027;-48
2024/01/27 06:48:07;;;;;;;613.67;178.20;;;;;;;;;;5032567;28;20021;-47
2024/01/27 06:50:34;;;;;;;785.47;201.80;;;;;;;;;;5031048;28;20120;-48
2024/01/27 06:53:02;;;;;;;711.20;188.80;;;;;;;;;;5032554;28;20057;-47
2024/01/27 06:55:28;;;;;;;376.60;132.15;;;;;;;;;;5032237;28;20488;-47
2024/01/27 06:57:54;;;;;;;375.33;129.00;;;;;;;;;;5031248;28;20088;-49
2024/01/27 07:00:21;;;;;;;478.10;148.67;;;;;;;;;;5032374;28;20446;-47
2024/01/27 07:02:47;;;;;;;629.75;181.23;;;;;;;;;;5030958;28;20266;-47
2024/01/27 07:05:14;;;;;;;392.33;137.55;;;;;;;;;;5030882;28;20087;-47
2024/01/27 07:07:41;;;;;;;581.63;158.60;;;;;;;;;;5030919;28;20034;-51
2024/01/27 07:10:10;;;;;;;;;;;;;;;;;;5032524;28;20022;-51
2024/01/27 07:12:36;;;;;;;578.03;160.52;;;;;;;;;;5030955;28;19975;-53
2024/01/27 07:15:03;;;;;;;569.33;172.77;;;;;;;;;;5032115;28;20071;-50
2024/01/27 07:17:29;;;;;;;929.77;224.57;;;;;;;;;;5031834;28;20444;-48
2024/01/27 07:19:55;;;;;;;741.92;203.70;;;;;;;;;;5030801;28;20115;-48
2024/01/27 07:22:23;;;;;;;690.08;188.13;;;;;;;;;;5030347;28;20532;-47
2024/01/27 07:24:51;;;;;;;439.05;140.50;;;;;;;;;;5030801;28;20400;-50
2024/01/27 07:27:18;;;;;;;447.00;145.32;;;;;;;;;;5031615;28;20036;-48
2024/01/27 07:29:44;;;;;;;691.95;190.82;;;;;;;;;;5031760;28;20031;-47
2024/01/27 07:32:13;;;;;;;845.00;224.07;;;;;;;;;;5031735;28;20503;-48
2024/01/27 07:34:43;;;;;;;436.25;147.10;;;;;;;;;;5030365;28;20080;-46
2024/01/27 07:37:09;;;;;;;475.77;144.15;;;;;;;;;;5031585;28;20040;-49
2024/01/27 07:39:36;;;;;;;451.42;139.63;;;;;;;;;;5031623;28;20025;-46
2024/01/27 07:42:02;;;;;;;489.60;152.97;;;;;;;;;;5031636;28;20108;-46
2024/01/27 07:44:28;;;;;;;471.43;147.53;;;;;;;;;;5031627;28;20583;-48
2024/01/27 07:46:55;;;;;;;661.15;179.98;;;;;;;;;;5031499;28;20021;-46
2024/01/27 07:49:21;;;;;;;420.30;139.97;;;;;;;;;;5031556;28;20109;-49
2024/01/27 07:51:47;;;;;;;386.02;134.50;;;;;;;;;;5031457;28;20034;-48
2024/01/27 07:54:13;;;;;;;475.27;141.90;;;;;;;;;;5030072;28;20057;-48
2024/01/27 07:56:41;;;;;;;424.95;138.57;;;;;;;;;;5030390;28;20474;-48
2024/01/27 07:59:13;;;;;;;498.17;150.30;;;;;;;;;;5031323;28;20504;-47
2024/01/27 08:01:40;;;;;;;410.02;129.15;;;;;;;;;;5031326;28;20033;-48
2024/01/27 08:04:06;;;;;;;712.15;198.02;;;;;;;;;;5031468;28;20030;-51
2024/01/27 08:06:32;;;;;;;458.27;146.33;;;;;;;;;;5030266;28;20033;-46
2024/01/27 08:08:59;;;;;;;407.30;129.57;;;;;;;;;;5031424;28;20252;-46
2024/01/27 08:11:26;;;;;;;449.83;144.05;;;;;;;;;;5031500;28;20048;-47
2024/01/27 08:13:52;;;;;;;629.42;174.77;;;;;;;;;;5031456;28;20555;-48
2024/01/27 08:16:18;;;;;;;713.00;193.27;;;;;;;;;;5031192;28;20419;-48
2024/01/27 08:18:45;;;;;;;739.25;212.10;;;;;;;;;;5031378;28;20264;-46
2024/01/27 08:21:11;;;;;;;730.83;194.13;;;;;;;;;;5031359;28;20033;-46
2024/01/27 08:23:38;;;;;;;401.33;136.20;;;;;;;;;;5033978;28;20113;-47
2024/01/27 08:26:04;;;;;;;591.80;197.57;;;;;;;;;;5035322;28;20076;-48
2024/01/27 08:28:30;;;;;;;416.58;139.05;;;;;;;;;;5034192;28;20626;-48
2024/01/27 08:30:57;;;;;;;554.20;172.88;;;;;;;;;;5033822;28;20033;-47
2024/01/27 08:33:23;;;;;;;478.45;150.13;;;;;;;;;;5035395;28;20034;-46
2024/01/27 08:35:49;;;;;;;371.80;132.27;;;;;;;;;;5035026;28;20033;-46
2024/01/27 08:38:15;;;;;;;592.23;196.73;;;;;;;;;;5034920;28;20669;-47
2024/01/27 08:40:42;;;;;;;531.17;170.27;;;;;;;;;;5034846;28;20021;-52
2024/01/27 08:43:09;;;;;;;445.33;138.85;;;;;;;;;;5034812;28;20045;-47
2024/01/27 08:45:36;;;;;;;426.88;147.13;;;;;;;;;;5034732;28;20026;-46
2024/01/27 08:48:02;;;;;;;335.17;126.57;;;;;;;;;;5034757;28;20030;-50
2024/01/27 08:50:28;;;;;;;358.38;125.38;;;;;;;;;;5034723;28;20025;-52
2024/01/27 08:52:54;;;;;;;342.03;124.93;;;;;;;;;;5034771;28;20029;-49
2024/01/27 08:55:23;;;;;;;339.58;125.22;;;;;;;;;;5034303;28;20025;-47
2024/01/27 08:57:50;;;;;;;345.23;123.35;;;;;;;;;;5034457;28;20035;-47
2024/01/27 09:00:16;;;;;;;386.90;131.85;;;;;;;;;;5034502;28;20030;-50
2024/01/27 09:02:43;;;;;;;318.10;118.50;;;;;;;;;;5033437;28;20045;-46
2024/01/27 09:05:09;;;;;;;379.77;134.00;;;;;;;;;;5034450;28;20037;-50
2024/01/27 09:07:35;;;;;;;378.00;133.25;;;;;;;;;;5034611;28;20109;-46
2024/01/27 09:10:02;;;;;;;478.85;155.27;;;;;;;;;;5034542;28;20034;-46
2024/01/27 09:12:28;;;;;;;646.42;183.85;;;;;;;;;;5033135;28;20080;-45
2024/01/27 09:14:54;;;;;;;559.78;166.68;;;;;;;;;;5034369;28;20524;-46
2024/01/27 09:17:23;;;;;;;292.07;115.53;;;;;;;;;;5034195;28;20022;-47
2024/01/27 09:19:50;;;;;;;423.13;131.40;;;;;;;;;;5034209;28;20045;-47
2024/01/27 09:22:17;;;;;;;345.73;115.95;;;;;;;;;;5034517;28;20111;-50
2024/01/27 09:24:43;;;;;;;319.87;114.83;;;;;;;;;;5034191;28;20078;-49
2024/01/27 09:27:09;;;;;;;422.30;134.77;;;;;;;;;;5034005;28;20369;-47
2024/01/27 09:29:35;;;;;;;311.87;116.87;;;;;;;;;;5034121;28;20063;-48
2024/01/27 09:32:01;;;;;;;375.52;129.02;;;;;;;;;;5032704;28;20025;-47
2024/01/27 09:34:28;;;;;;;299.67;119.82;;;;;;;;;;5031645;28;20083;-50
2024/01/27 09:36:54;;;;;;;339.93;117.60;;;;;;;;;;5032576;28;20036;-48
2024/01/27 09:39:20;;;;;;;344.20;124.65;;;;;;;;;;5034130;28;20034;-50
2024/01/27 09:41:49;;;;;;;344.17;125.60;;;;;;;;;;5033925;28;20029;-49
2024/01/27 09:44:19;;;;;;;327.15;125.65;;;;;;;;;;5032608;28;20037;-47
2024/01/27 09:46:47;;;;;;;344.75;127.15;;;;;;;;;;5033656;28;20543;-50
2024/01/27 09:49:14;;;;;;;288.48;112.35;;;;;;;;;;5033892;28;20025;-47
2024/01/27 09:51:44;;;;;;;271.95;109.45;;;;;;;;;;5032446;28;20121;-46
2024/01/27 09:54:10;;;;;;;460.25;143.20;;;;;;;;;;5033513;28;20053;-47
2024/01/27 09:56:36;;;;;;;304.63;121.50;;;;;;;;;;5033402;28;20059;-47
2024/01/27 09:59:03;;;;;;;302.90;124.60;;;;;;;;;;5033464;28;20052;-46
2024/01/27 10:01:30;;;;;;;263.75;112.97;;;;;;;;;;5033360;28;20103;-46
2024/01/27 10:03:56;;;;;;;299.33;119.32;;;;;;;;;;5033271;28;20029;-48
2024/01/27 10:06:22;;;;;;;281.27;116.63;;;;;;;;;;5033091;28;20095;-46
2024/01/27 10:08:55;;;;;;;326.08;125.47;;;;;;;;;;5033445;28;20083;-46
2024/01/27 10:11:22;;;;;;;289.42;113.65;;;;;;;;;;5031961;28;20408;-49
2024/01/27 10:14:02;;;;;;;300.55;116.82;;;;;;;;;;5031907;28;20401;-47
2024/01/27 10:16:29;;;;;;;252.52;104.95;;;;;;;;;;5031725;28;20048;-46
2024/01/27 10:19:04;;;;;;;301.08;118.57;;;;;;;;;;5032958;28;20078;-46
2024/01/27 10:21:30;;;;;;;302.77;111.78;;;;;;;;;;5032925;28;20083;-48
2024/01/27 10:23:57;;;;;;;261.20;112.80;;;;;;;;;;5032863;28;20476;-47
2024/01/27 10:26:23;;;;;;;282.48;122.70;;;;;;;;;;5031695;28;20032;-47
2024/01/27 10:28:57;;;;;;;331.13;129.27;;;;;;;;;;5032749;28;20022;-48
2024/01/27 10:31:30;;;;;;;282.98;114.07;;;;;;;;;;5032788;28;20116;-47
2024/01/27 10:33:56;;;;;;;360.45;134.52;;;;;;;;;;5032821;28;20032;-48
2024/01/27 10:36:23;;;;;;;261.92;110.68;;;;;;;;;;5031353;28;20071;-47
2024/01/27 10:38:49;;;;;;;262.58;107.13;;;;;;;;;;5031713;28;20439;-47
2024/01/27 10:41:26;;;;;;;250.90;105.57;;;;;;;;;;5031352;28;20029;-47
2024/01/27 10:43:52;;;;;;;228.25;102.53;;;;;;;;;;5031310;28;20108;-49
2024/01/27 10:46:21;;;;;;;249.40;108.90;;;;;;;;;;5032007;28;20548;-48
2024/01/27 10:48:53;;;;;;;210.90;98.85;;;;;;;;;;5032474;28;20105;-47
2024/01/27 10:51:23;;;;;;;249.10;111.25;;;;;;;;;;5055191;22;20061;-46
2024/01/27 10:53:50;;;;;;;220.40;104.63;;;;;;;;;;5032229;28;20052;-45
2024/01/27 10:56:16;;;;;;;296.00;125.10;;;;;;;;;;5030934;28;20040;-46
2024/01/27 10:58:43;;;;;;;247.18;109.47;;;;;;;;;;5032269;28;20029;-45
2024/01/27 11:01:12;;;;;;;216.75;101.90;;;;;;;;;;5039470;28;20376;-46
2024/01/27 11:03:39;;;;;;;230.45;105.15;;;;;;;;;;5050822;28;20122;-47
2024/01/27 11:06:06;;;;;;;232.15;104.63;;;;;;;;;;5051903;28;20486;-45
2024/01/27 11:08:34;;;;;;;185.90;87.53;;;;;;;;;;5051996;28;20495;-47
2024/01/27 11:11:01;;;;;;;191.98;93.88;;;;;;;;;;5051863;28;20455;-46
2024/01/27 11:13:31;;;;;;;193.85;91.68;;;;;;;;;;5050497;28;20086;-46
2024/01/27 11:15:58;;;;;;;187.50;94.45;;;;;;;;;;5050247;28;20513;-45
2024/01/27 11:18:24;;;;;;;;;;;;;;;;;;5052214;28;20029;-46
2024/01/27 11:20:53;;;;;;;186.93;92.07;;;;;;;;;;5050576;28;20341;-47
2024/01/27 11:23:20;;;;;;;179.68;91.47;;;;;;;;;;5050527;28;20033;-47
2024/01/27 11:25:46;;;;;;;193.52;100.10;;;;;;;;;;5050252;28;20095;-45
2024/01/27 11:28:14;;;;;;;181.48;92.72;;;;;;;;;;5051657;28;20033;-46
2024/01/27 11:30:40;;;;;;;167.18;92.65;;;;;;;;;;5051667;28;20471;-45
2024/01/27 11:33:08;;;;;;;160.05;88.43;;;;;;;;;;5050473;28;20099;-48
2024/01/27 11:35:34;;;;;;;156.15;85.70;;;;;;;;;;5050370;28;20037;-45
2024/01/27 11:38:00;;;;;;;159.63;85.80;;;;;;;;;;5052118;28;20494;-47
2024/01/27 11:40:27;;;;;;;161.15;86.90;;;;;;;;;;5051463;28;20143;-46
2024/01/27 11:42:59;;;;;;;155.95;85.68;;;;;;;;;;5051294;28;20040;-47
2024/01/27 11:45:27;;;;;;;154.68;86.28;;;;;;;;;;5051636;28;20135;-45
2024/01/27 11:47:55;;;;;;;158.13;90.63;;;;;;;;;;5051479;28;20483;-48
2024/01/27 11:50:21;;;;;;;139.90;85.10;;;;;;;;;;5051220;28;20040;-49
2024/01/27 11:52:47;;;;;;;143.52;86.82;;;;;;;;;;5049153;28;20160;-47
2024/01/27 11:55:15;;;;;;;147.27;87.60;;;;;;;;;;5050022;28;20071;-45
2024/01/27 11:57:44;;;;;;;145.10;86.13;;;;;;;;;;5051472;28;20025;-47
2024/01/27 12:00:13;;;;;;;134.23;83.18;;;;;;;;;;5059056;28;20021;-48
2024/01/27 12:02:39;;;;;;;128.48;79.93;;;;;;;;;;5034906;28;20024;-46
2024/01/27 12:05:06;;;;;;;123.35;78.63;;;;;;;;;;5035253;28;20072;-48
2024/01/27 12:07:32;;;;;;;131.48;77.18;;;;;;;;;;5034345;28;20041;-47
2024/01/27 12:09:59;;;;;;;118.63;74.78;;;;;;;;;;5035481;28;20541;-47
2024/01/27 12:12:25;;;;;;;118.25;76.95;;;;;;;;;;5034456;28;20434;-48
2024/01/27 12:14:52;;;;;;;125.18;76.57;;;;;;;;;;5033715;28;20029;-46
2024/01/27 12:17:18;;;;;;;121.45;78.10;;;;;;;;;;5033433;28;20036;-46
2024/01/27 12:19:54;;;;;;;114.50;72.63;;;;;;;;;;5033682;28;20028;-49
2024/01/27 12:22:27;;;;;;;111.55;73.13;;;;;;;;;;5032550;28;20033;-48
2024/01/27 12:24:54;;;;;;;105.22;72.13;;;;;;;;;;5033727;28;20172;-47
2024/01/27 12:27:21;;;;;;;98.35;64.78;;;;;;;;;;5033470;28;20487;-49
2024/01/27 12:29:50;;;;;;;98.93;62.83;;;;;;;;;;5033462;28;20103;-47
2024/01/27 12:32:16;;;;;;;89.45;62.40;;;;;;;;;;5033321;28;20025;-47
2024/01/27 12:34:43;;;;;;;87.90;59.60;;;;;;;;;;5031919;28;20083;-47
2024/01/27 12:37:11;;;;;;;878.65;161.35;;;;;;;;;;5030315;28;20499;-47
2024/01/27 12:39:38;;;;;;;95.22;66.55;;;;;;;;;;5033358;28;20036;-45
2024/01/27 12:42:04;;;;;;;84.53;58.47;;;;;;;;;;5032070;28;20029;-49
2024/01/27 12:44:30;;;;;;;77.78;59.25;;;;;;;;;;5031961;28;20029;-48
2024/01/27 12:46:57;;;;;;;80.15;56.70;;;;;;;;;;5033052;28;20083;-47
2024/01/27 12:49:23;;;;;;;78.83;57.30;;;;;;;;;;5033191;28;20104;-47
2024/01/27 12:51:49;;;;;;;82.68;57.70;;;;;;;;;;5032937;28;20038;-48
2024/01/27 12:54:16;;;;;;;76.85;57.08;;;;;;;;;;5031592;28;20033;-47
2024/01/27 12:56:42;;;;;;;75.13;55.88;;;;;;;;;;5032777;28;20026;-46
2024/01/27 12:59:08;;;;;;;82.15;57.88;;;;;;;;;;5015196;28;20030;-45
2024/01/27 13:01:35;;;;;;;75.45;55.83;;;;;;;;;;5032884;28;20037;-46
2024/01/27 13:04:01;;;;;;;70.05;53.08;;;;;;;;;;5032861;28;20033;-46
2024/01/27 13:06:27;;;;;;;72.73;54.03;;;;;;;;;;5031344;28;20034;-48
2024/01/27 13:08:54;;;;;;;73.63;55.33;;;;;;;;;;5032537;28;20022;-46
2024/01/27 13:11:20;;;;;;;67.55;52.97;;;;;;;;;;5032699;28;20037;-46
2024/01/27 13:13:47;;;;;;;66.45;52.55;;;;;;;;;;5032699;28;20021;-45
2024/01/27 13:16:13;;;;;;;76.55;54.50;;;;;;;;;;5032444;28;20491;-45
2024/01/27 13:18:39;;;;;;;72.23;55.33;;;;;;;;;;5032574;28;20033;-46
2024/01/27 13:21:06;;;;;;;64.68;50.35;;;;;;;;;;5032571;28;20514;-46
2024/01/27 13:23:35;;;;;;;89.95;68.18;;;;;;;;;;5032569;28;20029;-44
2024/01/27 13:26:02;;;;;;;66.28;51.58;;;;;;;;;;5032456;28;20045;-46
2024/01/27 13:28:28;;;;;;;64.17;51.37;;;;;;;;;;5032851;28;20017;-46
2024/01/27 13:30:55;;;;;;;64.43;50.60;;;;;;;;;;5032456;28;20491;-46
2024/01/27 13:33:21;;;;;;;;;;;;;;;;;;5032927;28;20113;-45
2024/01/27 13:35:47;;;;;;;63.40;49.67;;;;;;;;;;5030481;28;19913;-46
2024/01/27 13:38:15;;;;;;;66.37;53.80;;;;;;;;;;5032375;28;20562;-47
2024/01/27 13:40:42;;;;;;;69.32;54.00;;;;;;;;;;5032071;28;20024;-48
2024/01/27 13:43:08;;;;;;;67.60;51.58;;;;;;;;;;5032124;28;20045;-46
2024/01/27 13:45:35;;;;;;;64.45;49.35;;;;;;;;;;5031829;28;20109;-47
2024/01/27 13:48:01;;;;;;;60.13;50.72;;;;;;;;;;5032084;28;20038;-47
2024/01/27 13:50:30;;;;;;;60.35;51.65;;;;;;;;;;5031737;28;20120;-47
2024/01/27 13:52:57;;;;;;;60.97;48.88;;;;;;;;;;5030700;28;20163;-45
2024/01/27 13:55:23;;;;;;;61.10;50.63;;;;;;;;;;5030582;28;20495;-45